• Join FlightAware (Why Join?)
  • Login
  • US Flag 
05:12AM EDT


 

Airport Tracker/Info


-or-


 

Live Flight TrackerFlight Track Log ✈ SWA1707 ✈ 06-May-2013 ✈ KBOS - KBNA

Flight Track Log - Related Links

Times and Time Zones

All times are in EDT time to prevent confusion due to time zone crossing. See the SWA1707 flight status page for this flight to view local times or setup timezone preferences in your user account.

Time Position Orientation Groundspeed Altitude Reporting Facility
EDT Latitude Longitude Course Direction KTS MPH feet Rate Location/Type
02:55PM 42.3667 -70.9833 141° Southeast 152 175 900  Level KA90
02:57PM 42.4446 -70.8339 114° Southeast  Level FlightAware Approximate
03:00PM 42.2433 -70.8472 294° West 203 234 13,600  Level Boston Center
03:02PM 42.1872 -70.9977 280° West  Level FlightAware Approximate
03:02PM 42.2342 -71.1136 280° West 356 410 18,300  Level Boston Center
03:04PM 42.2000 -71.3128 270° West  Level FlightAware Approximate
03:04PM 42.2000 -71.4295 270° West  Level FlightAware Approximate
03:04PM 42.2253 -71.4503 270° West 391 450 22,500  Level Boston Center
03:05PM 42.2000 -71.5755 270° West  Level FlightAware Approximate
03:06PM 42.2000 -71.6203 270° West  Level FlightAware Approximate
03:06PM 42.2065 -71.7196 294° West  Level FlightAware Approximate
03:08PM 42.1914 -72.0869 236° Southwest 442 509 28,700  Level Boston Center
03:09PM 42.1856 -72.2494 267° West 442 509 30,700 1,020 Climbing Boston Center
03:11PM 42.1667 -72.4174 270° West  Level FlightAware Approximate
03:13PM 42.1613 -72.6320 257° West  Level FlightAware Approximate
03:14PM 42.1184 -72.7632 236° Southwest  Level FlightAware Approximate
03:15PM 41.9092 -73.0314 228° Southwest 411 473 36,000  Level Boston Center
03:17PM 41.8041 -73.1318 215° Southwest  Level FlightAware Approximate
03:18PM 41.7747 -73.2131 212° Southwest  Level FlightAware Approximate
03:18PM 41.6486 -73.3347 233° Southwest 417 480 36,000  Level Boston Center
03:19PM 41.6748 -73.2836 225° Southwest  Level FlightAware Approximate
03:20PM 41.5638 -73.4449 228° Southwest  Level FlightAware Approximate
03:20PM 41.5996 -73.3919 228° Southwest  Level FlightAware Approximate
03:20PM 41.5164 -73.5444 228° Southwest 420 483 36,000  Level New York Center
03:21PM 41.5255 -73.5014 228° Southwest  Level FlightAware Approximate
03:22PM 41.4124 -73.6803 224° Southwest  Level FlightAware Approximate
03:22PM 41.3717 -73.7597 224° Southwest 404 465 36,000  Level New York Center
03:24PM 41.2710 -73.8925 233° Southwest  Level FlightAware Approximate
03:24PM 41.3183 -73.8096 233° Southwest  Level FlightAware Approximate
03:24PM 41.2197 -73.9872 233° Southwest 410 472 36,000  Level New York Center
03:25PM 41.1439 -74.0994 242° Southwest 410 472 36,000  Level New York Center
03:26PM 41.1175 -74.1169 238° Southwest  Level FlightAware Approximate
03:29PM 40.8969 -74.6117 238° Southwest 425 489 36,000  Level New York Center
03:31PM 40.7781 -74.8653 238° Southwest 419 482 36,000  Level New York Center
03:33PM 40.7056 -74.9834 238° Southwest  Level FlightAware Approximate
03:33PM 40.6945 -75.0165 234° Southwest  Level FlightAware Approximate
03:34PM 40.6498 -75.1091 242° Southwest  Level FlightAware Approximate
03:35PM 40.5984 -75.2379 242° Southwest  Level FlightAware Approximate
03:35PM 40.5467 -75.3786 239° Southwest 412 474 36,000  Level New York Center
03:36PM 40.4872 -75.5108 239° Southwest 412 474 36,000  Level New York Center
03:38PM 40.4030 -75.6641 240° Southwest  Level FlightAware Approximate
03:38PM 40.3661 -75.7697 240° Southwest 412 474 36,000  Level New York Center
03:40PM 40.2993 -75.8904 239° Southwest  Level FlightAware Approximate
03:40PM 40.2845 -75.9226 239° Southwest  Level FlightAware Approximate
03:40PM 40.2378 -76.0378 239° Southwest 419 482 36,000  Level New York Center
03:41PM 40.2420 -76.0143 239° Southwest  Level FlightAware Approximate
03:41PM 40.1781 -76.1608 238° Southwest 413 475 36,000  Level New York Center
03:43PM 40.1003 -76.3161 237° Southwest  Level FlightAware Approximate
03:45PM 39.9544 -76.6503 232° Southwest 413 475 36,000  Level New York Center
03:46PM 39.8917 -76.7775 237° Southwest 413 475 36,000  Level New York Center
03:50PM 39.7005 -77.1790 240° Southwest  Level FlightAware Approximate
03:50PM 39.7883 -76.9961 238° Southwest  Level FlightAware Approximate
03:51PM 39.6361 -77.2954 232° Southwest  Level FlightAware Approximate
03:51PM 39.6217 -77.3533 238° Southwest 411 473 36,000  Level Washington Center
03:52PM 39.5614 -77.4783 238° Southwest 411 473 35,400 -840 Descending Washington Center
03:53PM 39.5031 -77.6033 239° Southwest 411 473 34,400 -480 Descending Washington Center
03:55PM 39.3842 -77.8553 239° Southwest 411 473 34,000 -180 Descending Washington Center
03:56PM 39.3294 -77.9903 242° Southwest 422 486 34,000  Level Washington Center
03:57PM 39.2744 -78.1253 242° Southwest 422 486 34,000  Level Washington Center
03:59PM 39.1752 -78.3476 240° Southwest  Level FlightAware Approximate
04:01PM 39.0664 -78.6528 257° West 423 487 34,000  Level Washington Center
04:02PM 39.0108 -78.7839 241° Southwest 423 487 34,000  Level Washington Center
04:03PM 38.9569 -78.9178 243° Southwest 423 487 34,000  Level Washington Center
04:04PM 38.9011 -79.0514 242° Southwest 423 487 34,000 -720 Level Washington Center
04:06PM 38.8227 -79.2416 257° West  Level FlightAware Approximate
04:06PM 38.8178 -79.3300 249° West 423 487 32,000  Level Washington Center
04:07PM 38.7661 -79.6089 257° West 431 496 32,000  Level Indianapolis Center
04:08PM 38.7636 -79.6467 265° West 433 498 32,000  Level Washington Center
04:09PM 38.7356 -79.7969 257° West 443 510 32,000  Level Washington Center
04:10PM 38.7119 -79.9311 257° West 443 510 32,000  Level Washington Center
04:11PM 38.6814 -80.0864 256° West 448 516 32,000  Level Washington Center
04:12PM 38.6528 -80.2361 256° West 448 516 32,000 -420 Level Washington Center
04:13PM 38.6233 -80.3761 255° West 433 498 31,300 -900 Descending Indianapolis Center
04:15PM 38.5664 -80.6764 256° West 433 498 29,400 -840 Descending Indianapolis Center
04:17PM 38.5078 -80.9786 256° West 439 505 28,000 -480 Descending Indianapolis Center
04:18PM 38.4778 -81.1339 256° West 448 516 28,000  Level Indianapolis Center
04:19PM 38.4397 -81.3228 256° West 453 521 28,000  Level Indianapolis Center
04:21PM 38.3744 -81.6483 256° West 469 540 28,000  Level Indianapolis Center
04:22PM 38.3400 -81.8094 255° West 469 540 28,000  Level Indianapolis Center
04:23PM 38.2967 -81.9650 251° West 466 536 28,000  Level Indianapolis Center
04:25PM 38.2302 -82.1718 248° West  Level FlightAware Approximate
04:26PM 38.1639 -82.4311 248° West 472 543 28,000  Level Indianapolis Center
04:28PM 38.1044 -82.6256 249° West  Level FlightAware Approximate
04:28PM 38.0625 -82.7825 249° West 483 556 28,000  Level Indianapolis Center
04:30PM 38.0008 -82.9652 247° West  Level FlightAware Approximate
04:31PM 37.8875 -83.2408 250° West 477 549 28,000  Level Indianapolis Center
04:33PM 37.8024 -83.3910 234° Southwest  Level FlightAware Approximate
04:34PM 37.6025 -83.5900 237° Southwest 456 525 28,000  Level Indianapolis Center
04:35PM 37.5356 -83.7353 240° Southwest 478 550 28,000  Level Indianapolis Center
04:36PM 37.4686 -83.8819 240° Southwest 484 557 28,000  Level Indianapolis Center
04:37PM 37.7231 -83.9054 250° West  Level FlightAware Approximate
04:37PM 37.3919 -84.0486 240° Southwest 475 547 28,000  Level Indianapolis Center
04:38PM 37.3242 -84.1944 240° Southwest 482 555 28,000  Level Indianapolis Center
04:39PM 37.2519 -84.3489 240° Southwest 510 587 28,000  Level Indianapolis Center
04:40PM 37.3561 -84.2226 237° Southwest  Level FlightAware Approximate
04:41PM 37.1800 -84.5000 239° Southwest 508 585 28,000  Level Indianapolis Center
04:43PM 37.0367 -84.8053 240° Southwest 492 566 27,400 -540 Descending Indianapolis Center
04:44PM 36.9678 -84.9503 239° Southwest 486 559 26,400 -1,080 Descending Indianapolis Center
04:45PM 36.8872 -85.1200 239° Southwest 477 549 25,200 -1,080 Descending Indianapolis Center
04:46PM 36.8128 -85.2467 234° Southwest 457 526 24,200 -1,020 Descending Indianapolis Center
04:48PM 36.6550 -85.4714 229° Southwest 428 493 22,200 -960 Descending Indianapolis Center
04:48PM 36.6331 -85.5164 239° Southwest 436 502 22,000 -540 Descending Memphis Center
04:49PM 36.6000 -85.5992 244° Southwest 417 480 21,700 -1,560 Descending Indianapolis Center
04:50PM 36.5281 -85.7706 242° Southwest 419 482 18,900 -2,220 Descending Memphis Center
04:51PM 36.4544 -85.8653 226° Southwest 398 458 16,800 -1,800 Descending Memphis Center
04:52PM 36.4067 -85.9814 243° Southwest 388 447 15,400 -1,680 Descending Memphis Center
04:53PM 36.3603 -86.0919 243° Southwest 370 426 13,500 -1,680 Descending Memphis Center
04:55PM 36.2797 -86.2922 244° Southwest 348 400 10,500 -1,560 Descending Indianapolis Center
04:56PM 36.2428 -86.3847 244° Southwest 304 350 9,000 -1,620 Descending Indianapolis Center
04:57PM 36.2064 -86.4781 244° Southwest 304 350 7,200 -1,800 Descending Memphis Center
04:58PM 36.1606 -86.5522 233° Southwest 285 328 5,400 -1,620 Descending Memphis Center
05:00PM 36.0319 -86.6378 208° Southwest 256 295 2,500 -1,200 Descending Memphis Center
05:02PM 36.1039 -86.6731 338° Northwest 115 132 800 -660 Descending Memphis Center
05:03PM 36.1331 -86.6744 358° North 115 132 600 -240 Descending Memphis Center